sensor_id;sensor_type;location;lat;lon;timestamp;P1;durP1;ratioP1;P2;durP2;ratioP2
17631;SDS011;8934;51.194;17.150;2023-07-31T00:00:47;4.70;;;3.90;;
17631;SDS011;8934;51.194;17.150;2023-07-31T00:03:34;5.07;;;4.05;;
17631;SDS011;8934;51.194;17.150;2023-07-31T00:06:23;7.45;;;3.97;;
17631;SDS011;8934;51.194;17.150;2023-07-31T00:09:11;4.80;;;3.78;;
17631;SDS011;8934;51.194;17.150;2023-07-31T00:11:58;4.63;;;3.40;;
17631;SDS011;8934;51.194;17.150;2023-07-31T00:14:46;4.03;;;3.63;;
17631;SDS011;8934;51.194;17.150;2023-07-31T00:17:34;4.40;;;3.72;;
17631;SDS011;8934;51.194;17.150;2023-07-31T00:20:22;3.85;;;3.20;;
17631;SDS011;8934;51.194;17.150;2023-07-31T00:23:11;5.03;;;3.50;;
17631;SDS011;8934;51.194;17.150;2023-07-31T00:25:59;5.82;;;3.80;;
17631;SDS011;8934;51.194;17.150;2023-07-31T00:28:47;5.45;;;3.80;;
17631;SDS011;8934;51.194;17.150;2023-07-31T00:31:35;5.47;;;3.83;;
17631;SDS011;8934;51.194;17.150;2023-07-31T00:34:23;6.32;;;3.47;;
17631;SDS011;8934;51.194;17.150;2023-07-31T00:37:10;5.43;;;4.03;;
17631;SDS011;8934;51.194;17.150;2023-07-31T00:40:01;5.80;;;3.72;;
17631;SDS011;8934;51.194;17.150;2023-07-31T00:42:49;4.85;;;3.58;;
17631;SDS011;8934;51.194;17.150;2023-07-31T00:45:37;5.25;;;3.88;;
17631;SDS011;8934;51.194;17.150;2023-07-31T00:48:25;4.57;;;3.70;;
17631;SDS011;8934;51.194;17.150;2023-07-31T00:51:14;6.00;;;3.70;;
17631;SDS011;8934;51.194;17.150;2023-07-31T00:54:02;3.85;;;3.30;;
17631;SDS011;8934;51.194;17.150;2023-07-31T00:56:52;4.70;;;3.50;;
17631;SDS011;8934;51.194;17.150;2023-07-31T00:59:41;4.57;;;3.78;;
17631;SDS011;8934;51.194;17.150;2023-07-31T01:02:33;4.82;;;3.92;;
17631;SDS011;8934;51.194;17.150;2023-07-31T01:05:23;5.65;;;3.65;;
17631;SDS011;8934;51.194;17.150;2023-07-31T01:08:24;4.18;;;3.65;;
17631;SDS011;8934;51.194;17.150;2023-07-31T01:11:22;4.75;;;3.58;;
17631;SDS011;8934;51.194;17.150;2023-07-31T01:14:15;3.85;;;3.45;;
17631;SDS011;8934;51.194;17.150;2023-07-31T01:17:03;6.47;;;3.83;;
17631;SDS011;8934;51.194;17.150;2023-07-31T01:19:52;5.53;;;3.70;;
17631;SDS011;8934;51.194;17.150;2023-07-31T01:22:48;4.97;;;4.00;;
17631;SDS011;8934;51.194;17.150;2023-07-31T01:25:59;5.22;;;3.78;;
17631;SDS011;8934;51.194;17.150;2023-07-31T01:28:53;6.43;;;3.72;;
17631;SDS011;8934;51.194;17.150;2023-07-31T01:31:48;5.78;;;4.05;;
17631;SDS011;8934;51.194;17.150;2023-07-31T01:34:37;5.38;;;3.55;;
17631;SDS011;8934;51.194;17.150;2023-07-31T01:37:27;6.40;;;3.40;;
17631;SDS011;8934;51.194;17.150;2023-07-31T01:40:17;7.90;;;3.75;;
17631;SDS011;8934;51.194;17.150;2023-07-31T01:43:06;6.07;;;3.92;;
17631;SDS011;8934;51.194;17.150;2023-07-31T01:45:54;7.15;;;4.10;;
17631;SDS011;8934;51.194;17.150;2023-07-31T01:48:42;4.93;;;3.92;;
17631;SDS011;8934;51.194;17.150;2023-07-31T01:51:30;6.57;;;4.45;;
17631;SDS011;8934;51.194;17.150;2023-07-31T01:54:19;5.68;;;3.53;;
17631;SDS011;8934;51.194;17.150;2023-07-31T01:57:07;4.90;;;3.80;;
17631;SDS011;8934;51.194;17.150;2023-07-31T01:59:56;9.18;;;4.22;;
17631;SDS011;8934;51.194;17.150;2023-07-31T02:02:43;4.55;;;3.60;;
17631;SDS011;8934;51.194;17.150;2023-07-31T02:05:33;5.50;;;4.13;;
17631;SDS011;8934;51.194;17.150;2023-07-31T02:08:21;6.63;;;4.20;;
17631;SDS011;8934;51.194;17.150;2023-07-31T02:11:09;7.75;;;3.92;;
17631;SDS011;8934;51.194;17.150;2023-07-31T02:13:57;6.38;;;3.78;;
17631;SDS011;8934;51.194;17.150;2023-07-31T02:16:46;5.70;;;3.88;;
17631;SDS011;8934;51.194;17.150;2023-07-31T02:19:34;8.30;;;3.90;;
17631;SDS011;8934;51.194;17.150;2023-07-31T02:22:23;6.05;;;3.67;;
17631;SDS011;8934;51.194;17.150;2023-07-31T02:25:10;4.65;;;3.67;;
17631;SDS011;8934;51.194;17.150;2023-07-31T02:27:58;6.57;;;3.67;;
17631;SDS011;8934;51.194;17.150;2023-07-31T02:30:45;6.22;;;3.95;;
17631;SDS011;8934;51.194;17.150;2023-07-31T02:33:34;4.18;;;3.60;;
17631;SDS011;8934;51.194;17.150;2023-07-31T02:36:22;4.00;;;3.60;;
17631;SDS011;8934;51.194;17.150;2023-07-31T02:39:10;6.68;;;4.03;;
17631;SDS011;8934;51.194;17.150;2023-07-31T02:41:57;6.70;;;4.25;;
17631;SDS011;8934;51.194;17.150;2023-07-31T02:44:46;6.55;;;3.92;;
17631;SDS011;8934;51.194;17.150;2023-07-31T02:47:34;8.25;;;3.63;;
17631;SDS011;8934;51.194;17.150;2023-07-31T02:50:23;5.70;;;4.15;;
17631;SDS011;8934;51.194;17.150;2023-07-31T02:53:11;5.55;;;3.85;;
17631;SDS011;8934;51.194;17.150;2023-07-31T02:55:59;6.50;;;3.25;;
17631;SDS011;8934;51.194;17.150;2023-07-31T02:58:47;7.95;;;4.30;;
17631;SDS011;8934;51.194;17.150;2023-07-31T03:01:34;6.30;;;3.97;;
17631;SDS011;8934;51.194;17.150;2023-07-31T03:04:22;6.90;;;3.90;;
17631;SDS011;8934;51.194;17.150;2023-07-31T03:07:11;7.15;;;3.58;;
17631;SDS011;8934;51.194;17.150;2023-07-31T03:09:59;5.75;;;3.40;;
17631;SDS011;8934;51.194;17.150;2023-07-31T03:12:47;6.82;;;4.03;;
17631;SDS011;8934;51.194;17.150;2023-07-31T03:15:35;7.93;;;3.92;;
17631;SDS011;8934;51.194;17.150;2023-07-31T03:18:22;5.13;;;4.18;;
17631;SDS011;8934;51.194;17.150;2023-07-31T03:21:10;7.88;;;3.70;;
17631;SDS011;8934;51.194;17.150;2023-07-31T03:24:00;7.28;;;4.00;;
17631;SDS011;8934;51.194;17.150;2023-07-31T03:26:48;7.07;;;3.65;;
17631;SDS011;8934;51.194;17.150;2023-07-31T03:29:36;5.88;;;3.83;;
17631;SDS011;8934;51.194;17.150;2023-07-31T03:32:24;4.43;;;3.72;;
17631;SDS011;8934;51.194;17.150;2023-07-31T03:35:12;5.68;;;3.75;;
17631;SDS011;8934;51.194;17.150;2023-07-31T03:38:01;7.32;;;4.00;;
17631;SDS011;8934;51.194;17.150;2023-07-31T03:40:50;8.05;;;4.35;;
17631;SDS011;8934;51.194;17.150;2023-07-31T03:43:37;7.38;;;3.80;;
17631;SDS011;8934;51.194;17.150;2023-07-31T03:46:26;6.38;;;4.43;;
17631;SDS011;8934;51.194;17.150;2023-07-31T03:49:14;7.60;;;4.40;;
17631;SDS011;8934;51.194;17.150;2023-07-31T03:52:02;7.75;;;3.85;;
17631;SDS011;8934;51.194;17.150;2023-07-31T03:54:50;4.70;;;3.80;;
17631;SDS011;8934;51.194;17.150;2023-07-31T03:57:39;6.22;;;3.92;;
17631;SDS011;8934;51.194;17.150;2023-07-31T04:00:27;5.80;;;3.60;;
17631;SDS011;8934;51.194;17.150;2023-07-31T04:03:14;9.15;;;4.25;;
17631;SDS011;8934;51.194;17.150;2023-07-31T04:06:02;7.47;;;4.22;;
17631;SDS011;8934;51.194;17.150;2023-07-31T04:08:50;8.70;;;4.40;;
17631;SDS011;8934;51.194;17.150;2023-07-31T04:11:41;6.10;;;3.97;;
17631;SDS011;8934;51.194;17.150;2023-07-31T04:14:30;7.22;;;4.15;;
17631;SDS011;8934;51.194;17.150;2023-07-31T04:17:18;9.02;;;3.83;;
17631;SDS011;8934;51.194;17.150;2023-07-31T04:20:05;6.65;;;3.95;;
17631;SDS011;8934;51.194;17.150;2023-07-31T04:22:54;6.47;;;3.92;;
17631;SDS011;8934;51.194;17.150;2023-07-31T04:25:41;6.28;;;3.75;;
17631;SDS011;8934;51.194;17.150;2023-07-31T04:28:29;6.57;;;3.83;;
17631;SDS011;8934;51.194;17.150;2023-07-31T04:31:19;4.35;;;3.47;;
17631;SDS011;8934;51.194;17.150;2023-07-31T04:34:06;5.35;;;3.65;;
17631;SDS011;8934;51.194;17.150;2023-07-31T04:36:54;4.70;;;3.65;;
17631;SDS011;8934;51.194;17.150;2023-07-31T04:39:42;7.68;;;3.70;;
17631;SDS011;8934;51.194;17.150;2023-07-31T04:42:29;5.88;;;3.70;;
17631;SDS011;8934;51.194;17.150;2023-07-31T04:45:17;6.00;;;3.88;;
17631;SDS011;8934;51.194;17.150;2023-07-31T04:48:06;5.05;;;3.72;;
17631;SDS011;8934;51.194;17.150;2023-07-31T04:50:54;5.00;;;3.80;;
17631;SDS011;8934;51.194;17.150;2023-07-31T04:53:42;5.70;;;3.65;;
17631;SDS011;8934;51.194;17.150;2023-07-31T04:56:29;6.75;;;3.90;;
17631;SDS011;8934;51.194;17.150;2023-07-31T04:59:17;5.57;;;3.28;;
17631;SDS011;8934;51.194;17.150;2023-07-31T05:02:05;9.32;;;4.32;;
17631;SDS011;8934;51.194;17.150;2023-07-31T05:04:55;7.10;;;3.83;;
17631;SDS011;8934;51.194;17.150;2023-07-31T05:07:43;7.95;;;4.15;;
17631;SDS011;8934;51.194;17.150;2023-07-31T05:10:31;8.60;;;3.90;;
17631;SDS011;8934;51.194;17.150;2023-07-31T05:13:19;8.93;;;3.28;;
17631;SDS011;8934;51.194;17.150;2023-07-31T05:16:07;6.85;;;3.53;;
17631;SDS011;8934;51.194;17.150;2023-07-31T05:18:54;6.68;;;3.10;;
17631;SDS011;8934;51.194;17.150;2023-07-31T05:21:44;9.75;;;3.40;;
17631;SDS011;8934;51.194;17.150;2023-07-31T05:24:31;4.97;;;3.05;;
17631;SDS011;8934;51.194;17.150;2023-07-31T05:27:19;5.13;;;2.88;;
17631;SDS011;8934;51.194;17.150;2023-07-31T05:30:07;9.70;;;3.70;;
17631;SDS011;8934;51.194;17.150;2023-07-31T05:32:55;6.97;;;3.40;;
17631;SDS011;8934;51.194;17.150;2023-07-31T05:35:44;8.82;;;3.45;;
17631;SDS011;8934;51.194;17.150;2023-07-31T05:38:33;5.15;;;3.20;;
17631;SDS011;8934;51.194;17.150;2023-07-31T05:41:21;6.57;;;3.03;;
17631;SDS011;8934;51.194;17.150;2023-07-31T05:44:10;8.65;;;3.15;;
17631;SDS011;8934;51.194;17.150;2023-07-31T05:46:57;6.88;;;3.20;;
17631;SDS011;8934;51.194;17.150;2023-07-31T05:49:44;7.70;;;2.92;;
17631;SDS011;8934;51.194;17.150;2023-07-31T05:52:32;6.18;;;3.33;;
17631;SDS011;8934;51.194;17.150;2023-07-31T05:55:21;5.05;;;2.88;;
17631;SDS011;8934;51.194;17.150;2023-07-31T05:58:09;7.25;;;3.33;;
17631;SDS011;8934;51.194;17.150;2023-07-31T06:00:57;6.47;;;2.70;;
17631;SDS011;8934;51.194;17.150;2023-07-31T06:03:45;5.00;;;2.65;;
17631;SDS011;8934;51.194;17.150;2023-07-31T06:06:32;10.38;;;3.28;;
17631;SDS011;8934;51.194;17.150;2023-07-31T06:09:20;9.15;;;3.08;;
17631;SDS011;8934;51.194;17.150;2023-07-31T06:12:10;5.80;;;3.25;;
17631;SDS011;8934;51.194;17.150;2023-07-31T06:14:58;5.78;;;3.22;;
17631;SDS011;8934;51.194;17.150;2023-07-31T06:17:46;9.60;;;3.00;;
17631;SDS011;8934;51.194;17.150;2023-07-31T06:20:34;8.73;;;3.38;;
17631;SDS011;8934;51.194;17.150;2023-07-31T06:23:22;5.68;;;3.20;;
17631;SDS011;8934;51.194;17.150;2023-07-31T06:26:10;6.40;;;3.13;;
17631;SDS011;8934;51.194;17.150;2023-07-31T06:28:59;7.03;;;3.10;;
17631;SDS011;8934;51.194;17.150;2023-07-31T06:31:46;6.97;;;3.42;;
17631;SDS011;8934;51.194;17.150;2023-07-31T06:34:34;4.80;;;2.97;;
17631;SDS011;8934;51.194;17.150;2023-07-31T06:37:22;9.50;;;3.40;;
17631;SDS011;8934;51.194;17.150;2023-07-31T06:40:10;6.30;;;3.05;;
17631;SDS011;8934;51.194;17.150;2023-07-31T06:42:58;7.90;;;3.67;;
17631;SDS011;8934;51.194;17.150;2023-07-31T06:45:53;6.22;;;2.85;;
17631;SDS011;8934;51.194;17.150;2023-07-31T06:48:41;6.95;;;3.05;;
17631;SDS011;8934;51.194;17.150;2023-07-31T06:51:29;7.45;;;2.97;;
17631;SDS011;8934;51.194;17.150;2023-07-31T06:54:17;6.38;;;2.55;;
17631;SDS011;8934;51.194;17.150;2023-07-31T06:57:04;4.53;;;2.97;;
17631;SDS011;8934;51.194;17.150;2023-07-31T06:59:52;4.70;;;2.50;;
17631;SDS011;8934;51.194;17.150;2023-07-31T07:02:41;7.32;;;2.67;;
17631;SDS011;8934;51.194;17.150;2023-07-31T07:05:29;6.03;;;2.63;;
17631;SDS011;8934;51.194;17.150;2023-07-31T07:08:17;5.72;;;2.13;;
17631;SDS011;8934;51.194;17.150;2023-07-31T07:11:05;4.85;;;2.50;;
17631;SDS011;8934;51.194;17.150;2023-07-31T07:13:53;4.07;;;2.30;;
17631;SDS011;8934;51.194;17.150;2023-07-31T07:16:40;5.57;;;2.30;;
17631;SDS011;8934;51.194;17.150;2023-07-31T07:19:30;6.63;;;2.10;;
17631;SDS011;8934;51.194;17.150;2023-07-31T07:22:18;3.55;;;1.70;;
17631;SDS011;8934;51.194;17.150;2023-07-31T07:25:06;6.95;;;2.42;;
17631;SDS011;8934;51.194;17.150;2023-07-31T07:27:54;5.32;;;2.03;;
17631;SDS011;8934;51.194;17.150;2023-07-31T07:30:42;7.60;;;2.22;;
17631;SDS011;8934;51.194;17.150;2023-07-31T07:33:29;5.35;;;2.28;;
17631;SDS011;8934;51.194;17.150;2023-07-31T07:36:18;4.70;;;1.95;;
17631;SDS011;8934;51.194;17.150;2023-07-31T07:39:06;6.53;;;2.35;;
17631;SDS011;8934;51.194;17.150;2023-07-31T07:41:54;4.68;;;1.90;;
17631;SDS011;8934;51.194;17.150;2023-07-31T07:44:42;4.35;;;2.20;;
17631;SDS011;8934;51.194;17.150;2023-07-31T07:47:29;5.78;;;2.25;;
17631;SDS011;8934;51.194;17.150;2023-07-31T07:50:17;3.60;;;1.50;;
17631;SDS011;8934;51.194;17.150;2023-07-31T07:53:06;4.53;;;1.80;;
17631;SDS011;8934;51.194;17.150;2023-07-31T07:55:53;5.10;;;1.83;;
17631;SDS011;8934;51.194;17.150;2023-07-31T07:58:41;3.90;;;1.90;;
17631;SDS011;8934;51.194;17.150;2023-07-31T08:01:29;2.95;;;1.58;;
17631;SDS011;8934;51.194;17.150;2023-07-31T08:04:17;4.13;;;2.33;;
17631;SDS011;8934;51.194;17.150;2023-07-31T08:07:05;5.03;;;1.73;;
17631;SDS011;8934;51.194;17.150;2023-07-31T08:09:54;6.65;;;2.17;;
17631;SDS011;8934;51.194;17.150;2023-07-31T08:12:42;2.85;;;1.80;;
17631;SDS011;8934;51.194;17.150;2023-07-31T08:15:29;3.63;;;1.70;;
17631;SDS011;8934;51.194;17.150;2023-07-31T08:18:17;4.07;;;1.50;;
17631;SDS011;8934;51.194;17.150;2023-07-31T08:21:09;3.13;;;1.70;;
17631;SDS011;8934;51.194;17.150;2023-07-31T08:23:56;3.22;;;1.80;;
17631;SDS011;8934;51.194;17.150;2023-07-31T08:26:46;5.97;;;1.63;;
17631;SDS011;8934;51.194;17.150;2023-07-31T08:29:34;5.53;;;1.80;;
17631;SDS011;8934;51.194;17.150;2023-07-31T08:32:22;6.07;;;1.70;;
17631;SDS011;8934;51.194;17.150;2023-07-31T08:35:10;4.78;;;1.42;;
17631;SDS011;8934;51.194;17.150;2023-07-31T08:37:57;3.78;;;1.50;;
17631;SDS011;8934;51.194;17.150;2023-07-31T08:40:45;3.35;;;1.83;;
17631;SDS011;8934;51.194;17.150;2023-07-31T08:43:35;5.90;;;2.05;;
17631;SDS011;8934;51.194;17.150;2023-07-31T08:46:24;3.72;;;1.60;;
17631;SDS011;8934;51.194;17.150;2023-07-31T08:49:12;4.68;;;1.55;;
17631;SDS011;8934;51.194;17.150;2023-07-31T08:52:01;3.17;;;1.67;;
17631;SDS011;8934;51.194;17.150;2023-07-31T08:54:49;4.95;;;1.80;;
17631;SDS011;8934;51.194;17.150;2023-07-31T08:57:38;3.17;;;1.90;;
17631;SDS011;8934;51.194;17.150;2023-07-31T09:00:27;6.20;;;1.90;;
17631;SDS011;8934;51.194;17.150;2023-07-31T09:03:17;3.45;;;1.65;;
17631;SDS011;8934;51.194;17.150;2023-07-31T09:06:05;3.63;;;1.70;;
17631;SDS011;8934;51.194;17.150;2023-07-31T09:08:54;3.63;;;1.70;;
17631;SDS011;8934;51.194;17.150;2023-07-31T09:11:42;3.70;;;1.40;;
17631;SDS011;8934;51.194;17.150;2023-07-31T09:14:30;3.05;;;1.85;;
17631;SDS011;8934;51.194;17.150;2023-07-31T09:17:29;3.13;;;1.73;;
17631;SDS011;8934;51.194;17.150;2023-07-31T09:20:18;6.40;;;2.78;;
17631;SDS011;8934;51.194;17.150;2023-07-31T09:23:07;5.50;;;2.35;;
17631;SDS011;8934;51.194;17.150;2023-07-31T09:25:56;3.42;;;1.73;;
17631;SDS011;8934;51.194;17.150;2023-07-31T09:28:43;2.80;;;1.60;;
17631;SDS011;8934;51.194;17.150;2023-07-31T09:31:32;4.20;;;1.95;;
17631;SDS011;8934;51.194;17.150;2023-07-31T09:34:30;4.50;;;1.77;;
17631;SDS011;8934;51.194;17.150;2023-07-31T09:37:24;5.10;;;1.77;;
17631;SDS011;8934;51.194;17.150;2023-07-31T09:40:12;3.13;;;1.70;;
17631;SDS011;8934;51.194;17.150;2023-07-31T09:43:13;4.20;;;2.55;;
17631;SDS011;8934;51.194;17.150;2023-07-31T09:46:05;3.25;;;2.28;;
17631;SDS011;8934;51.194;17.150;2023-07-31T09:49:04;3.15;;;2.38;;
17631;SDS011;8934;51.194;17.150;2023-07-31T09:51:57;4.65;;;2.40;;
17631;SDS011;8934;51.194;17.150;2023-07-31T09:54:44;4.93;;;2.67;;
17631;SDS011;8934;51.194;17.150;2023-07-31T09:57:32;4.28;;;2.63;;
17631;SDS011;8934;51.194;17.150;2023-07-31T10:00:21;5.82;;;3.00;;
17631;SDS011;8934;51.194;17.150;2023-07-31T10:03:12;4.95;;;2.90;;
17631;SDS011;8934;51.194;17.150;2023-07-31T10:06:02;3.45;;;2.78;;
17631;SDS011;8934;51.194;17.150;2023-07-31T10:08:51;3.85;;;2.72;;
17631;SDS011;8934;51.194;17.150;2023-07-31T10:11:41;4.78;;;2.80;;
17631;SDS011;8934;51.194;17.150;2023-07-31T10:14:36;4.55;;;2.65;;
17631;SDS011;8934;51.194;17.150;2023-07-31T10:17:25;4.82;;;2.78;;
17631;SDS011;8934;51.194;17.150;2023-07-31T10:20:14;3.20;;;2.90;;
17631;SDS011;8934;51.194;17.150;2023-07-31T10:23:02;4.65;;;2.67;;
17631;SDS011;8934;51.194;17.150;2023-07-31T10:25:53;6.75;;;2.50;;
17631;SDS011;8934;51.194;17.150;2023-07-31T10:28:41;3.05;;;2.30;;
17631;SDS011;8934;51.194;17.150;2023-07-31T10:31:30;3.85;;;2.35;;
17631;SDS011;8934;51.194;17.150;2023-07-31T10:34:19;3.50;;;2.30;;
17631;SDS011;8934;51.194;17.150;2023-07-31T10:37:24;3.50;;;2.22;;
17631;SDS011;8934;51.194;17.150;2023-07-31T10:40:13;10.48;;;3.20;;
17631;SDS011;8934;51.194;17.150;2023-07-31T10:43:07;8.25;;;2.63;;
17631;SDS011;8934;51.194;17.150;2023-07-31T10:45:57;3.88;;;1.92;;
17631;SDS011;8934;51.194;17.150;2023-07-31T10:48:44;5.70;;;2.20;;
17631;SDS011;8934;51.194;17.150;2023-07-31T10:51:32;5.68;;;2.50;;
17631;SDS011;8934;51.194;17.150;2023-07-31T10:54:21;4.72;;;2.10;;
17631;SDS011;8934;51.194;17.150;2023-07-31T10:57:18;3.97;;;2.40;;
17631;SDS011;8934;51.194;17.150;2023-07-31T11:00:19;3.72;;;2.05;;
17631;SDS011;8934;51.194;17.150;2023-07-31T11:03:08;1.92;;;1.63;;
17631;SDS011;8934;51.194;17.150;2023-07-31T11:06:01;2.78;;;1.90;;
17631;SDS011;8934;51.194;17.150;2023-07-31T11:08:50;2.25;;;1.73;;
17631;SDS011;8934;51.194;17.150;2023-07-31T11:11:38;2.40;;;1.60;;
17631;SDS011;8934;51.194;17.150;2023-07-31T11:14:26;2.67;;;1.95;;
17631;SDS011;8934;51.194;17.150;2023-07-31T11:17:15;5.72;;;1.90;;
17631;SDS011;8934;51.194;17.150;2023-07-31T11:20:03;2.38;;;1.73;;
17631;SDS011;8934;51.194;17.150;2023-07-31T11:22:51;2.80;;;1.70;;
17631;SDS011;8934;51.194;17.150;2023-07-31T11:25:40;3.28;;;1.80;;
17631;SDS011;8934;51.194;17.150;2023-07-31T11:28:31;3.83;;;1.80;;
17631;SDS011;8934;51.194;17.150;2023-07-31T11:31:20;7.00;;;1.70;;
17631;SDS011;8934;51.194;17.150;2023-07-31T11:34:09;2.47;;;1.67;;
17631;SDS011;8934;51.194;17.150;2023-07-31T11:36:57;1.70;;;1.60;;
17631;SDS011;8934;51.194;17.150;2023-07-31T11:39:48;2.97;;;1.83;;
17631;SDS011;8934;51.194;17.150;2023-07-31T11:42:46;2.13;;;1.30;;
17631;SDS011;8934;51.194;17.150;2023-07-31T11:45:33;3.20;;;1.73;;
17631;SDS011;8934;51.194;17.150;2023-07-31T11:48:21;3.92;;;1.48;;
17631;SDS011;8934;51.194;17.150;2023-07-31T11:51:12;6.50;;;2.30;;
17631;SDS011;8934;51.194;17.150;2023-07-31T11:54:01;3.35;;;1.60;;
17631;SDS011;8934;51.194;17.150;2023-07-31T11:56:49;2.42;;;1.80;;
17631;SDS011;8934;51.194;17.150;2023-07-31T11:59:37;3.15;;;1.80;;
17631;SDS011;8934;51.194;17.150;2023-07-31T12:02:25;2.75;;;1.80;;
17631;SDS011;8934;51.194;17.150;2023-07-31T12:05:13;3.30;;;1.75;;
17631;SDS011;8934;51.194;17.150;2023-07-31T12:08:05;3.55;;;1.80;;
17631;SDS011;8934;51.194;17.150;2023-07-31T12:11:01;6.00;;;2.00;;
17631;SDS011;8934;51.194;17.150;2023-07-31T12:13:50;2.97;;;2.63;;
17631;SDS011;8934;51.194;17.150;2023-07-31T12:16:38;4.95;;;2.22;;
17631;SDS011;8934;51.194;17.150;2023-07-31T12:19:26;2.80;;;1.90;;
17631;SDS011;8934;51.194;17.150;2023-07-31T12:22:16;1.88;;;1.70;;
17631;SDS011;8934;51.194;17.150;2023-07-31T12:25:05;3.22;;;1.80;;
17631;SDS011;8934;51.194;17.150;2023-07-31T12:27:53;2.67;;;1.90;;
17631;SDS011;8934;51.194;17.150;2023-07-31T12:30:41;3.15;;;1.65;;
17631;SDS011;8934;51.194;17.150;2023-07-31T12:33:33;2.90;;;1.80;;
17631;SDS011;8934;51.194;17.150;2023-07-31T12:36:22;3.13;;;2.45;;
17631;SDS011;8934;51.194;17.150;2023-07-31T12:39:10;3.08;;;2.15;;
17631;SDS011;8934;51.194;17.150;2023-07-31T12:42:00;2.78;;;2.00;;
17631;SDS011;8934;51.194;17.150;2023-07-31T12:44:48;3.70;;;1.90;;
17631;SDS011;8934;51.194;17.150;2023-07-31T12:47:36;2.85;;;1.80;;
17631;SDS011;8934;51.194;17.150;2023-07-31T12:50:23;3.63;;;1.88;;
17631;SDS011;8934;51.194;17.150;2023-07-31T12:53:11;2.90;;;1.98;;
17631;SDS011;8934;51.194;17.150;2023-07-31T12:55:58;3.05;;;2.17;;
17631;SDS011;8934;51.194;17.150;2023-07-31T12:58:48;2.72;;;1.92;;
17631;SDS011;8934;51.194;17.150;2023-07-31T13:01:36;3.17;;;2.10;;
17631;SDS011;8934;51.194;17.150;2023-07-31T13:04:23;3.50;;;1.95;;
17631;SDS011;8934;51.194;17.150;2023-07-31T13:07:11;2.70;;;2.05;;
17631;SDS011;8934;51.194;17.150;2023-07-31T13:09:59;2.70;;;2.20;;
17631;SDS011;8934;51.194;17.150;2023-07-31T13:12:46;4.03;;;2.35;;
17631;SDS011;8934;51.194;17.150;2023-07-31T13:15:35;4.22;;;2.33;;
17631;SDS011;8934;51.194;17.150;2023-07-31T13:18:23;3.20;;;2.08;;
17631;SDS011;8934;51.194;17.150;2023-07-31T13:21:11;2.25;;;1.98;;
17631;SDS011;8934;51.194;17.150;2023-07-31T13:24:03;3.92;;;1.83;;
17631;SDS011;8934;51.194;17.150;2023-07-31T13:26:50;2.42;;;2.00;;
17631;SDS011;8934;51.194;17.150;2023-07-31T13:29:38;4.25;;;2.30;;
17631;SDS011;8934;51.194;17.150;2023-07-31T13:32:27;3.08;;;2.30;;
17631;SDS011;8934;51.194;17.150;2023-07-31T13:35:15;3.65;;;2.42;;
17631;SDS011;8934;51.194;17.150;2023-07-31T13:38:03;4.60;;;2.40;;
17631;SDS011;8934;51.194;17.150;2023-07-31T13:40:52;4.13;;;2.05;;
17631;SDS011;8934;51.194;17.150;2023-07-31T13:43:40;3.22;;;2.13;;
17631;SDS011;8934;51.194;17.150;2023-07-31T13:46:28;4.75;;;2.80;;
17631;SDS011;8934;51.194;17.150;2023-07-31T13:49:17;3.22;;;2.30;;
17631;SDS011;8934;51.194;17.150;2023-07-31T13:52:32;5.43;;;2.47;;
17631;SDS011;8934;51.194;17.150;2023-07-31T13:55:20;3.20;;;2.28;;
17631;SDS011;8934;51.194;17.150;2023-07-31T13:58:08;3.58;;;2.72;;
17631;SDS011;8934;51.194;17.150;2023-07-31T14:00:56;6.03;;;3.40;;
17631;SDS011;8934;51.194;17.150;2023-07-31T14:03:44;5.63;;;2.92;;
17631;SDS011;8934;51.194;17.150;2023-07-31T14:06:33;3.15;;;2.58;;
17631;SDS011;8934;51.194;17.150;2023-07-31T14:09:21;3.33;;;2.40;;
17631;SDS011;8934;51.194;17.150;2023-07-31T14:12:12;4.22;;;2.95;;
17631;SDS011;8934;51.194;17.150;2023-07-31T14:15:19;2.88;;;2.58;;
17631;SDS011;8934;51.194;17.150;2023-07-31T14:18:11;4.43;;;2.35;;
17631;SDS011;8934;51.194;17.150;2023-07-31T14:20:59;3.63;;;2.75;;
17631;SDS011;8934;51.194;17.150;2023-07-31T14:23:49;5.93;;;3.13;;
17631;SDS011;8934;51.194;17.150;2023-07-31T14:26:37;3.25;;;2.30;;
17631;SDS011;8934;51.194;17.150;2023-07-31T14:29:25;6.85;;;2.70;;
17631;SDS011;8934;51.194;17.150;2023-07-31T14:32:13;4.50;;;2.65;;
17631;SDS011;8934;51.194;17.150;2023-07-31T14:35:00;4.80;;;2.80;;
17631;SDS011;8934;51.194;17.150;2023-07-31T14:37:48;3.80;;;2.40;;
17631;SDS011;8934;51.194;17.150;2023-07-31T14:40:37;4.55;;;2.78;;
17631;SDS011;8934;51.194;17.150;2023-07-31T14:43:25;3.70;;;2.67;;
17631;SDS011;8934;51.194;17.150;2023-07-31T14:46:12;4.75;;;2.85;;
17631;SDS011;8934;51.194;17.150;2023-07-31T14:49:00;3.17;;;2.40;;
17631;SDS011;8934;51.194;17.150;2023-07-31T14:51:48;3.83;;;2.45;;
17631;SDS011;8934;51.194;17.150;2023-07-31T14:54:35;5.18;;;2.47;;
17631;SDS011;8934;51.194;17.150;2023-07-31T14:57:24;4.07;;;2.45;;
17631;SDS011;8934;51.194;17.150;2023-07-31T15:00:12;2.60;;;2.38;;
17631;SDS011;8934;51.194;17.150;2023-07-31T15:03:01;4.00;;;2.53;;
17631;SDS011;8934;51.194;17.150;2023-07-31T15:05:49;4.00;;;1.90;;
17631;SDS011;8934;51.194;17.150;2023-07-31T15:08:36;5.00;;;1.98;;
17631;SDS011;8934;51.194;17.150;2023-07-31T15:11:24;3.22;;;2.00;;
17631;SDS011;8934;51.194;17.150;2023-07-31T15:14:13;3.80;;;2.30;;
17631;SDS011;8934;51.194;17.150;2023-07-31T15:17:02;2.67;;;1.70;;
17631;SDS011;8934;51.194;17.150;2023-07-31T15:19:50;2.97;;;1.90;;
17631;SDS011;8934;51.194;17.150;2023-07-31T15:22:38;1.77;;;1.60;;
17631;SDS011;8934;51.194;17.150;2023-07-31T15:25:26;2.63;;;1.48;;
17631;SDS011;8934;51.194;17.150;2023-07-31T15:28:13;2.97;;;2.10;;
17631;SDS011;8934;51.194;17.150;2023-07-31T15:31:03;2.47;;;1.80;;
17631;SDS011;8934;51.194;17.150;2023-07-31T15:33:51;2.28;;;1.63;;
17631;SDS011;8934;51.194;17.150;2023-07-31T15:36:39;3.88;;;2.00;;
17631;SDS011;8934;51.194;17.150;2023-07-31T15:39:27;2.00;;;1.67;;
17631;SDS011;8934;51.194;17.150;2023-07-31T15:42:15;1.85;;;1.60;;
17631;SDS011;8934;51.194;17.150;2023-07-31T15:45:03;3.40;;;1.92;;
17631;SDS011;8934;51.194;17.150;2023-07-31T15:47:52;2.45;;;1.80;;
17631;SDS011;8934;51.194;17.150;2023-07-31T15:50:40;2.40;;;1.75;;
17631;SDS011;8934;51.194;17.150;2023-07-31T15:53:28;3.03;;;2.08;;
17631;SDS011;8934;51.194;17.150;2023-07-31T15:56:16;3.63;;;1.70;;
17631;SDS011;8934;51.194;17.150;2023-07-31T15:59:04;2.17;;;1.77;;
17631;SDS011;8934;51.194;17.150;2023-07-31T16:01:51;2.30;;;1.77;;
17631;SDS011;8934;51.194;17.150;2023-07-31T16:04:41;3.35;;;1.95;;
17631;SDS011;8934;51.194;17.150;2023-07-31T16:07:29;1.98;;;1.60;;
17631;SDS011;8934;51.194;17.150;2023-07-31T16:10:16;4.20;;;2.35;;
17631;SDS011;8934;51.194;17.150;2023-07-31T16:13:04;2.58;;;2.03;;
17631;SDS011;8934;51.194;17.150;2023-07-31T16:15:52;2.42;;;1.67;;
17631;SDS011;8934;51.194;17.150;2023-07-31T16:18:39;2.53;;;1.92;;
17631;SDS011;8934;51.194;17.150;2023-07-31T16:21:28;2.38;;;2.17;;
17631;SDS011;8934;51.194;17.150;2023-07-31T16:24:16;2.92;;;1.85;;
17631;SDS011;8934;51.194;17.150;2023-07-31T16:27:04;2.90;;;2.00;;
17631;SDS011;8934;51.194;17.150;2023-07-31T16:29:52;2.35;;;1.75;;
17631;SDS011;8934;51.194;17.150;2023-07-31T16:32:39;2.05;;;1.70;;
17631;SDS011;8934;51.194;17.150;2023-07-31T16:35:27;4.40;;;2.17;;
17631;SDS011;8934;51.194;17.150;2023-07-31T16:38:16;2.70;;;2.00;;
17631;SDS011;8934;51.194;17.150;2023-07-31T16:41:04;2.70;;;1.88;;
17631;SDS011;8934;51.194;17.150;2023-07-31T16:43:52;3.55;;;1.98;;
17631;SDS011;8934;51.194;17.150;2023-07-31T16:46:40;2.33;;;1.80;;
17631;SDS011;8934;51.194;17.150;2023-07-31T16:49:28;3.15;;;2.13;;
17631;SDS011;8934;51.194;17.150;2023-07-31T16:52:16;2.35;;;2.00;;
17631;SDS011;8934;51.194;17.150;2023-07-31T16:55:05;3.20;;;2.28;;
17631;SDS011;8934;51.194;17.150;2023-07-31T16:57:54;2.70;;;2.20;;